createdAt,value
2023-04-21T00:00:00.597Z,7.2
2023-04-21T00:01:02.090Z,7.2
2023-04-21T00:02:03.802Z,7.2
2023-04-21T00:03:06.320Z,7.2
2023-04-21T00:04:09.105Z,7.2
2023-04-21T00:05:12.089Z,7.2
2023-04-21T00:06:13.564Z,7.2
2023-04-21T00:07:15.038Z,7.2
2023-04-21T00:08:16.567Z,7.2
2023-04-21T00:09:19.559Z,7.2
2023-04-21T00:10:21.275Z,7.2
2023-04-21T00:11:22.753Z,7.2
2023-04-21T00:12:24.265Z,7.2
2023-04-21T00:13:25.777Z,7.2
2023-04-21T00:14:27.315Z,7.2
2023-04-21T00:15:28.996Z,7.2
2023-04-21T00:16:31.320Z,7.2
2023-04-21T00:17:33.087Z,7.2
2023-04-21T00:18:34.670Z,7.2
2023-04-21T00:19:36.193Z,7.2
2023-04-21T00:20:37.743Z,7.2
2023-04-21T00:21:39.399Z,7.2
2023-04-21T00:22:40.828Z,7.2
2023-04-21T00:23:42.366Z,7.2
2023-04-21T00:24:43.962Z,7.2
2023-04-21T00:25:45.515Z,7.2
2023-04-21T00:26:46.974Z,7.2
2023-04-21T00:27:48.497Z,7.2
2023-04-21T00:28:50.083Z,7.2
2023-04-21T00:29:51.412Z,7.2
2023-04-21T00:30:53.052Z,7.2
2023-04-21T00:31:55.277Z,7.2
2023-04-21T00:32:56.929Z,7.2
2023-04-21T00:33:58.302Z,7.2
2023-04-21T00:34:59.781Z,7.2
2023-04-21T00:36:01.019Z,7.2
2023-04-21T00:37:02.558Z,7.2
2023-04-21T00:38:03.940Z,7.1
2023-04-21T00:39:05.516Z,7.1
2023-04-21T00:40:07.114Z,7.1
2023-04-21T00:41:08.556Z,7.2
2023-04-21T00:42:10.122Z,7.2
2023-04-21T00:43:11.693Z,7.1
2023-04-21T00:44:13.189Z,7.1
2023-04-21T00:45:14.691Z,7.1
2023-04-21T00:46:16.427Z,7.1
2023-04-21T00:47:18.109Z,7.1
2023-04-21T00:48:19.644Z,7.2
2023-04-21T00:49:21.878Z,7.1
2023-04-21T00:50:23.375Z,7.1
2023-04-21T00:51:24.986Z,7.2
2023-04-21T00:52:26.514Z,7.2
2023-04-21T00:53:27.874Z,7.2
2023-04-21T00:54:29.454Z,7.1
2023-04-21T00:55:31.008Z,7.1
2023-04-21T00:56:32.532Z,7.1
2023-04-21T00:57:34.064Z,7.1
2023-04-21T00:58:35.660Z,7.1
2023-04-21T00:59:37.230Z,7.1
2023-04-21T01:00:39.085Z,7.1
2023-04-21T01:01:40.639Z,7.1
2023-04-21T01:02:43.330Z,7.1
2023-04-21T01:03:46.321Z,7.1
2023-04-21T01:04:48.007Z,7.2
2023-04-21T01:05:49.502Z,7.2
2023-04-21T01:06:50.985Z,7.2
2023-04-21T01:07:52.381Z,7.1
2023-04-21T01:08:53.876Z,7.2
2023-04-21T01:09:55.273Z,7.1
2023-04-21T01:10:56.747Z,7.1
2023-04-21T01:11:58.168Z,7.2
2023-04-21T01:12:59.662Z,7.2
2023-04-21T01:14:01.040Z,7.2
2023-04-21T01:15:02.606Z,7.1
2023-04-21T01:16:04.379Z,7.2
2023-04-21T01:17:06.098Z,7.1
2023-04-21T01:18:07.994Z,7.1
2023-04-21T01:19:09.509Z,7.1
2023-04-21T01:20:10.941Z,7.1
2023-04-21T01:21:12.345Z,7.1
2023-04-21T01:22:13.924Z,7.1
2023-04-21T01:23:15.295Z,7.1
2023-04-21T01:24:16.528Z,7.1
2023-04-21T01:25:17.927Z,7.1
2023-04-21T01:26:19.444Z,7.1
2023-04-21T01:27:21.019Z,7.1
2023-04-21T01:28:22.564Z,7.1
2023-04-21T01:29:24.224Z,7.1
2023-04-21T01:30:25.974Z,7.1
2023-04-21T01:31:27.745Z,7.1
2023-04-21T01:32:30.438Z,7.1
2023-04-21T01:33:32.100Z,7.1
2023-04-21T01:34:33.585Z,7.1
2023-04-21T01:35:35.085Z,7.1
2023-04-21T01:36:36.572Z,7.1
2023-04-21T01:37:38.120Z,7.1
2023-04-21T01:38:39.564Z,7.1
2023-04-21T01:39:41.066Z,7.1
2023-04-21T01:40:42.453Z,7.1
2023-04-21T01:41:43.949Z,7.2
2023-04-21T01:42:45.474Z,7.1
2023-04-21T01:43:47.016Z,7.2
2023-04-21T01:44:48.632Z,7.2
2023-04-21T01:45:50.283Z,7.2
2023-04-21T01:46:51.747Z,7.2
2023-04-21T01:47:53.450Z,7.2
2023-04-21T01:48:55.260Z,7.2
2023-04-21T01:49:56.916Z,7.2
2023-04-21T01:50:58.538Z,7.2
2023-04-21T01:52:00.016Z,7.2
2023-04-21T01:53:01.451Z,7.2
2023-04-21T01:54:02.960Z,7.2
2023-04-21T01:55:04.387Z,7.2
2023-04-21T01:56:05.860Z,7.3
2023-04-21T01:57:07.922Z,7.3
2023-04-21T01:58:09.558Z,7.3
2023-04-21T01:59:11.114Z,7.3
2023-04-21T02:00:12.496Z,7.3
2023-04-21T02:01:14.231Z,7.3
2023-04-21T02:02:16.463Z,7.4
2023-04-21T02:03:19.665Z,7.4
2023-04-21T02:04:22.065Z,7.4
2023-04-21T02:05:23.688Z,7.5
2023-04-21T02:06:25.235Z,7.6
2023-04-21T02:07:26.619Z,7.6
2023-04-21T02:08:28.116Z,7.7
2023-04-21T02:09:29.681Z,7.8
2023-04-21T02:10:31.240Z,7.8
2023-04-21T02:11:32.767Z,7.9
2023-04-21T02:12:34.291Z,7.9
2023-04-21T02:13:35.784Z,7.9
2023-04-21T02:14:37.366Z,7.9
2023-04-21T02:15:39.137Z,7.9
2023-04-21T02:16:41.137Z,7.8
2023-04-21T02:17:43.022Z,7.9
2023-04-21T02:18:44.707Z,7.9
2023-04-21T02:19:46.406Z,7.5
2023-04-21T02:20:47.882Z,7.6
2023-04-21T02:21:49.166Z,7.8
2023-04-21T02:22:50.602Z,7.8
2023-04-21T02:23:52.145Z,7.9
2023-04-21T02:24:53.206Z,7.8
2023-04-21T02:25:54.594Z,7.8
2023-04-21T02:26:55.990Z,7.8
2023-04-21T02:27:57.770Z,7.7
2023-04-21T02:28:59.195Z,7.6
2023-04-21T02:30:00.808Z,7.5
2023-04-21T02:31:02.429Z,7.3
2023-04-21T02:32:27.468Z,7.2
2023-04-21T02:33:29.418Z,7.1
2023-04-21T02:34:30.902Z,7.1
2023-04-21T02:35:32.523Z,7.1
2023-04-21T02:36:34.004Z,7.1
2023-04-21T02:37:35.505Z,7.1
2023-04-21T02:38:37.056Z,7.1
2023-04-21T02:39:38.612Z,7.1
2023-04-21T02:40:40.145Z,7.1
2023-04-21T02:41:41.701Z,7.1
2023-04-21T02:42:43.274Z,7.1
2023-04-21T02:43:44.682Z,7.1
2023-04-21T02:44:46.218Z,7.1
2023-04-21T02:45:47.759Z,7.1
2023-04-21T02:46:49.641Z,7.1
2023-04-21T02:47:51.299Z,7.2
2023-04-21T02:48:52.824Z,7.1
2023-04-21T02:49:54.396Z,7.2
2023-04-21T02:50:55.869Z,7.1
2023-04-21T02:51:57.401Z,7.2
2023-04-21T02:52:58.974Z,7.2
2023-04-21T02:54:00.851Z,7.2
2023-04-21T02:55:02.432Z,7.2
2023-04-21T02:56:03.964Z,7.2
2023-04-21T02:57:05.385Z,7.2
2023-04-21T02:58:06.981Z,7.2
2023-04-21T02:59:08.511Z,7.2
2023-04-21T03:00:10.194Z,7.2
2023-04-21T03:01:12.658Z,7.2
2023-04-21T03:02:14.529Z,7.3
2023-04-21T03:03:17.180Z,7.4
2023-04-21T03:04:19.551Z,7.4
2023-04-21T03:05:21.239Z,7.5
2023-04-21T03:06:23.026Z,7.7
2023-04-21T03:07:24.541Z,7.8
2023-04-21T03:08:26.087Z,7.9
2023-04-21T03:09:27.587Z,7.9
2023-04-21T03:10:29.123Z,7.9
2023-04-21T03:11:30.582Z,7.9
2023-04-21T03:12:32.169Z,7.9
2023-04-21T03:13:33.592Z,7.9
2023-04-21T03:14:34.972Z,7.9
2023-04-21T03:15:36.628Z,7.9
2023-04-21T03:16:38.613Z,7.9
2023-04-21T03:17:40.283Z,7.8
2023-04-21T03:18:41.871Z,7.9
2023-04-21T03:19:43.367Z,7.9
2023-04-21T03:20:44.934Z,7.3
2023-04-21T03:21:46.534Z,7.5
2023-04-21T03:22:47.764Z,7.6
2023-04-21T03:23:49.298Z,7.7
2023-04-21T03:24:50.634Z,7.8
2023-04-21T03:25:52.143Z,7.8
2023-04-21T03:26:53.728Z,7.9
2023-04-21T03:27:55.238Z,7.9
2023-04-21T03:28:56.661Z,7.9
2023-04-21T03:29:58.183Z,7.9
2023-04-21T03:30:59.604Z,7.8
2023-04-21T03:32:01.516Z,7.8
2023-04-21T03:33:03.320Z,7.9
2023-04-21T03:34:04.918Z,7.8
2023-04-21T03:35:06.486Z,7.9
2023-04-21T03:36:08.052Z,7.9
2023-04-21T03:37:09.626Z,7.9
2023-04-21T03:38:11.172Z,7.9
2023-04-21T03:39:23.435Z,7.9
2023-04-21T03:40:25.225Z,7.9
2023-04-21T03:41:26.701Z,7.9
2023-04-21T03:42:28.224Z,7.9
2023-04-21T03:43:29.589Z,7.9
2023-04-21T03:44:31.152Z,7.8
2023-04-21T03:45:32.748Z,7.8
2023-04-21T03:46:34.545Z,7.8
2023-04-21T03:47:36.354Z,7.8
2023-04-21T03:48:37.897Z,7.8
2023-04-21T03:49:39.209Z,7.8
2023-04-21T03:50:40.456Z,7.8
2023-04-21T03:51:42.239Z,7.8
2023-04-21T03:52:43.826Z,7.8
2023-04-21T03:53:45.353Z,7.8
2023-04-21T03:54:46.958Z,7.8
2023-04-21T03:55:48.469Z,7.8
2023-04-21T03:56:49.960Z,7.7
2023-04-21T03:57:51.479Z,7.7
2023-04-21T03:58:52.984Z,7.7
2023-04-21T03:59:54.497Z,7.7
2023-04-21T04:00:56.048Z,7.7
2023-04-21T04:01:57.617Z,7.7
2023-04-21T04:03:00.307Z,7.7
2023-04-21T04:04:03.858Z,7.8
2023-04-21T04:05:05.872Z,7.8
2023-04-21T04:06:07.403Z,7.8
2023-04-21T04:07:08.726Z,7.8
2023-04-21T04:08:10.324Z,7.9
2023-04-21T04:09:11.741Z,7.9
2023-04-21T04:10:13.059Z,7.9
2023-04-21T04:11:14.653Z,7.9
2023-04-21T04:12:15.855Z,7.9
2023-04-21T04:13:17.380Z,7.9
2023-04-21T04:14:18.418Z,7.9
2023-04-21T04:15:19.797Z,7.1
2023-04-21T04:16:21.769Z,7.2
2023-04-21T04:17:23.462Z,7.3
2023-04-21T04:18:25.055Z,7.3
2023-04-21T04:19:26.456Z,7.3
2023-04-21T04:20:27.853Z,7.3
2023-04-21T04:21:29.433Z,7.3
2023-04-21T04:22:31.033Z,7.2
2023-04-21T04:23:32.574Z,7.2
2023-04-21T04:24:34.096Z,7.1
2023-04-21T04:25:35.473Z,7.1
2023-04-21T04:26:37.101Z,7.1
2023-04-21T04:27:38.563Z,7.1
2023-04-21T04:28:40.097Z,7.1
2023-04-21T04:29:41.661Z,7.1
2023-04-21T04:30:43.179Z,7.1
2023-04-21T04:31:45.095Z,7.1
2023-04-21T04:32:47.098Z,7.1
2023-04-21T04:33:48.650Z,7.1
2023-04-21T04:34:50.166Z,7.1
2023-04-21T04:35:51.526Z,7.1
2023-04-21T04:36:53.100Z,7.1
2023-04-21T04:37:54.792Z,7.1
2023-04-21T04:38:56.350Z,7.1
2023-04-21T04:39:57.806Z,7.1
2023-04-21T04:40:59.534Z,7.1
2023-04-21T04:42:00.999Z,7.1
2023-04-21T04:43:02.514Z,7.1
2023-04-21T04:44:03.900Z,7.1
2023-04-21T04:45:05.520Z,7.1
2023-04-21T04:46:07.220Z,7.2
2023-04-21T04:47:09.513Z,7.2
2023-04-21T04:48:11.106Z,7.2
2023-04-21T04:49:12.409Z,7.2
2023-04-21T04:50:13.940Z,7.2
2023-04-21T04:51:15.485Z,7.2
2023-04-21T04:52:16.919Z,7.2
2023-04-21T04:53:18.381Z,7.2
2023-04-21T04:54:22.074Z,7.2
2023-04-21T04:55:23.743Z,7.2
2023-04-21T04:56:25.294Z,7.2
2023-04-21T04:57:26.764Z,7.2
2023-04-21T04:58:28.469Z,7.3
2023-04-21T04:59:31.739Z,7.3
2023-04-21T05:00:33.349Z,7.4
2023-04-21T05:01:35.262Z,7.5
2023-04-21T05:02:38.563Z,7.6
2023-04-21T05:03:41.142Z,7.7
2023-04-21T05:04:43.595Z,7.8
2023-04-21T05:05:45.098Z,7.9
2023-04-21T05:06:46.458Z,7.9
2023-04-21T05:07:48.031Z,7.9
2023-04-21T05:08:49.607Z,7.9
2023-04-21T05:09:51.243Z,7.3
2023-04-21T05:10:52.662Z,7.4
2023-04-21T05:11:53.845Z,7.5
2023-04-21T05:12:55.416Z,7.7
2023-04-21T05:13:56.946Z,7.8
2023-04-21T05:14:58.570Z,7.9
2023-04-21T05:16:00.109Z,7.9
2023-04-21T05:17:02.083Z,7.9
2023-04-21T05:18:04.014Z,7.8
2023-04-21T05:19:05.617Z,7.9
2023-04-21T05:20:07.198Z,7.9
2023-04-21T05:21:08.653Z,7.9
2023-04-21T05:22:10.239Z,7.9
2023-04-21T05:23:11.757Z,7.9
2023-04-21T05:24:13.324Z,7.2
2023-04-21T05:25:14.984Z,7.3
2023-04-21T05:26:16.521Z,7.3
2023-04-21T05:27:18.063Z,7.4
2023-04-21T05:28:19.569Z,7.4
2023-04-21T05:29:21.139Z,7.4
2023-04-21T05:30:22.730Z,7.5
2023-04-21T05:31:24.496Z,7.5
2023-04-21T05:32:26.893Z,7.5
2023-04-21T05:33:28.594Z,7.5
2023-04-21T05:34:29.943Z,7.6
2023-04-21T05:35:31.820Z,7.6
2023-04-21T05:36:33.285Z,7.6
2023-04-21T05:37:34.803Z,7.5
2023-04-21T05:38:36.321Z,7.5
2023-04-21T05:39:37.765Z,7.5
2023-04-21T05:40:39.324Z,7.5
2023-04-21T05:41:40.733Z,7.4
2023-04-21T05:42:42.564Z,7.4
2023-04-21T05:43:44.092Z,7.4
2023-04-21T05:44:45.510Z,7.4
2023-04-21T05:45:47.414Z,7.4
2023-04-21T05:46:48.985Z,7.4
2023-04-21T05:47:51.000Z,7.3
2023-04-21T05:48:52.534Z,7.3
2023-04-21T05:49:54.480Z,7.2
2023-04-21T05:50:56.106Z,7.2
2023-04-21T05:51:57.709Z,7.2
2023-04-21T05:52:59.124Z,7.2
2023-04-21T05:54:00.528Z,7.2
2023-04-21T05:55:02.128Z,7.2
2023-04-21T05:56:03.753Z,7.2
2023-04-21T05:57:05.018Z,7.2
2023-04-21T05:58:06.553Z,7.2
2023-04-21T05:59:08.209Z,7.3
2023-04-21T06:00:09.791Z,7.3
2023-04-21T06:01:11.358Z,7.3
2023-04-21T06:02:13.735Z,7.4
2023-04-21T06:03:16.496Z,7.4
2023-04-21T06:04:21.623Z,7.4
2023-04-21T06:05:24.064Z,7.4
2023-04-21T06:06:25.696Z,7.4
2023-04-21T06:07:27.256Z,7.4
2023-04-21T06:08:28.775Z,7.5
2023-04-21T06:09:30.290Z,7.6
2023-04-21T06:10:31.953Z,7.7
2023-04-21T06:11:33.663Z,7.8
2023-04-21T06:12:35.193Z,7.8
2023-04-21T06:13:44.221Z,7.8
2023-04-21T06:14:45.583Z,7.2
2023-04-21T06:15:47.418Z,7.2
2023-04-21T06:16:48.890Z,7.2
2023-04-21T06:17:50.610Z,7.2
2023-04-21T06:18:52.140Z,7.2
2023-04-21T06:19:53.614Z,7.2
2023-04-21T06:20:55.183Z,7.2
2023-04-21T06:21:56.548Z,7.2
2023-04-21T06:22:57.970Z,7.2
2023-04-21T06:23:59.332Z,7.1
2023-04-21T06:25:02.160Z,7.1
2023-04-21T06:26:03.767Z,7.1
2023-04-21T06:27:05.385Z,7.2
2023-04-21T06:28:06.827Z,7.1
2023-04-21T06:29:08.392Z,7.1
2023-04-21T06:30:10.159Z,7.1
2023-04-21T06:31:11.776Z,7.1
2023-04-21T06:32:14.025Z,7.2
2023-04-21T06:33:15.583Z,7.1
2023-04-21T06:34:17.518Z,7.2
2023-04-21T06:35:19.126Z,7.1
2023-04-21T06:36:20.677Z,7.1
2023-04-21T06:37:22.333Z,7.1
2023-04-21T06:38:23.810Z,7.1
2023-04-21T06:39:25.229Z,7.1
2023-04-21T06:40:26.796Z,7.1
2023-04-21T06:41:28.290Z,7.1
2023-04-21T06:42:29.922Z,7.2
2023-04-21T06:43:31.335Z,7.2
2023-04-21T06:44:32.872Z,7.2
2023-04-21T06:45:34.482Z,7.2
2023-04-21T06:46:36.502Z,7.2
2023-04-21T06:47:38.330Z,7.2
2023-04-21T06:48:39.813Z,7.2
2023-04-21T06:49:41.405Z,7.2
2023-04-21T06:50:42.818Z,7.2
2023-04-21T06:51:44.410Z,7.2
2023-04-21T06:52:45.991Z,7.2
2023-04-21T06:53:47.422Z,7.2
2023-04-21T06:54:48.990Z,7.2
2023-04-21T06:55:50.611Z,7.2
2023-04-21T06:56:52.346Z,7.2
2023-04-21T06:57:53.956Z,7.2
2023-04-21T06:58:55.501Z,7.3
2023-04-21T06:59:56.941Z,7.3
2023-04-21T07:00:58.938Z,7.4
2023-04-21T07:02:00.825Z,7.5
2023-04-21T07:03:03.369Z,7.6
2023-04-21T07:04:05.788Z,7.6
2023-04-21T07:05:07.434Z,7.8
2023-04-21T07:06:09.029Z,7.8
2023-04-21T07:07:10.509Z,7.9
2023-04-21T07:08:12.114Z,7.9
2023-04-21T07:09:13.390Z,7.9
2023-04-21T07:10:14.975Z,7.9
2023-04-21T07:11:16.559Z,7.9
2023-04-21T07:12:18.182Z,7.5
2023-04-21T07:13:20.130Z,7.6
2023-04-21T07:14:21.281Z,7.8
2023-04-21T07:15:22.851Z,7.9
2023-04-21T07:16:24.611Z,7.9
2023-04-21T07:17:26.581Z,7.9
2023-04-21T07:18:28.091Z,7.8
2023-04-21T07:19:29.662Z,7.9
2023-04-21T07:20:30.914Z,7.9
2023-04-21T07:21:32.521Z,7.7
2023-04-21T07:22:33.765Z,7.8
2023-04-21T07:23:35.427Z,7.9
2023-04-21T07:24:37.115Z,7.9
2023-04-21T07:25:38.714Z,7.9
2023-04-21T07:26:40.140Z,7.9
2023-04-21T07:27:41.642Z,7.9
2023-04-21T07:28:43.383Z,7.9
2023-04-21T07:29:44.963Z,7.9
2023-04-21T07:30:46.869Z,7.9
2023-04-21T07:31:48.483Z,7.9
2023-04-21T07:32:51.277Z,7.9
2023-04-21T07:33:52.846Z,7.8
2023-04-21T07:34:54.372Z,7.8
2023-04-21T07:35:55.797Z,7.9
2023-04-21T07:36:57.296Z,7.8
2023-04-21T07:37:58.853Z,7.8
2023-04-21T07:39:01.115Z,7.8
2023-04-21T07:40:02.946Z,7.8
2023-04-21T07:41:04.366Z,7.8
2023-04-21T07:42:05.921Z,7.8
2023-04-21T07:43:07.514Z,7.7
2023-04-21T07:44:08.948Z,7.7
2023-04-21T07:45:10.357Z,7.7
2023-04-21T07:46:12.369Z,7.7
2023-04-21T07:47:13.845Z,7.6
2023-04-21T07:48:15.767Z,7.6
2023-04-21T07:49:17.709Z,7.5
2023-04-21T07:50:19.495Z,7.5
2023-04-21T07:51:21.062Z,7.4
2023-04-21T07:52:22.729Z,7.4
2023-04-21T07:53:24.120Z,7.4
2023-04-21T07:54:25.915Z,7.5
2023-04-21T07:55:27.347Z,7.5
2023-04-21T07:56:28.910Z,7.5
2023-04-21T07:57:30.415Z,7.5
2023-04-21T07:58:31.893Z,7.6
2023-04-21T07:59:33.386Z,7.5
2023-04-21T08:00:34.988Z,7.5
2023-04-21T08:01:36.480Z,7.4
2023-04-21T08:02:38.912Z,7.4
2023-04-21T08:03:42.383Z,7.2
2023-04-21T08:04:44.948Z,7.2
2023-04-21T08:05:47.593Z,7.2
2023-04-21T08:10:11.863Z,7.1
2023-04-21T08:11:45.468Z,7.1
2023-04-21T08:14:22.876Z,7.1
2023-04-21T08:15:56.335Z,7.1
2023-04-21T09:40:04.975Z,7.7
2023-04-21T09:52:19.670Z,7.1
2023-04-21T10:53:12.794Z,7.9
2023-04-21T11:35:07.861Z,7.1
2023-04-21T11:36:09.354Z,7.1
2023-04-21T11:37:10.809Z,7.1
2023-04-21T11:38:12.132Z,7.1
2023-04-21T11:39:13.573Z,7.1
2023-04-21T11:40:15.122Z,7.1
2023-04-21T11:41:16.660Z,7.1
2023-04-21T11:42:18.051Z,7.1
2023-04-21T11:43:19.493Z,7.1
2023-04-21T11:44:21.029Z,7.1
2023-04-21T11:45:24.281Z,7.1
2023-04-21T11:46:26.101Z,7.1
2023-04-21T11:47:28.633Z,7.2
2023-04-21T11:48:30.004Z,7.1
2023-04-21T11:49:31.576Z,7.2
2023-04-21T11:50:33.171Z,7.2
2023-04-21T11:51:34.657Z,7.2
2023-04-21T11:52:36.272Z,7.1
2023-04-21T11:53:37.779Z,7.2
2023-04-21T11:54:39.322Z,7.2
2023-04-21T11:55:40.756Z,7.2
2023-04-21T11:56:42.300Z,7.2
2023-04-21T11:57:43.787Z,7.2
2023-04-21T11:58:45.392Z,7.2
2023-04-21T11:59:46.958Z,7.2
2023-04-21T12:00:48.542Z,7.2
2023-04-21T12:01:49.653Z,7.2
2023-04-21T12:02:52.428Z,7.3
2023-04-21T12:03:55.957Z,7.3
2023-04-21T12:10:08.084Z,7.9
2023-04-21T12:11:09.963Z,7.9
2023-04-21T12:12:11.544Z,7.9
2023-04-21T12:13:12.678Z,7.8
2023-04-21T12:14:14.231Z,7.9
2023-04-21T12:15:15.770Z,7.9
2023-04-21T12:16:17.600Z,7.4
2023-04-21T12:17:19.111Z,7.6
2023-04-21T12:18:20.573Z,7.7
2023-04-21T12:19:22.080Z,7.8
2023-04-21T12:20:23.770Z,7.9
2023-04-21T12:21:25.412Z,7.9
2023-04-21T12:22:27.067Z,7.9
2023-04-21T12:23:28.699Z,7.9
2023-04-21T12:24:30.128Z,7.6
2023-04-21T12:25:31.605Z,7.7
2023-04-21T12:26:33.164Z,7.8
2023-04-21T12:27:34.649Z,7.9
2023-04-21T12:28:36.217Z,7.9
2023-04-21T12:29:37.825Z,7.9
2023-04-21T12:34:52.383Z,7.8
2023-04-21T12:35:53.995Z,7.8
2023-04-21T12:36:55.561Z,7.8
2023-04-21T12:37:57.043Z,7.8
2023-04-21T12:38:58.619Z,7.9
2023-04-21T12:40:00.066Z,7.9
2023-04-21T12:41:01.400Z,7.9
2023-04-21T12:42:02.918Z,7.9
2023-04-21T12:43:04.104Z,7.9
2023-04-21T12:44:05.676Z,7.9
2023-04-21T12:45:07.464Z,7.9
2023-04-21T12:46:09.050Z,7.9
2023-04-21T12:47:10.322Z,7.9
2023-04-21T12:48:12.245Z,7.9
2023-04-21T12:49:13.733Z,7.2
2023-04-21T12:50:15.202Z,7.3
2023-04-21T12:51:16.659Z,7.4
2023-04-21T12:52:18.247Z,7.5
2023-04-21T12:53:19.851Z,7.5
2023-04-21T12:54:21.448Z,7.6
2023-04-21T12:55:22.968Z,7.6
2023-04-21T12:56:24.392Z,7.7
2023-04-21T12:57:25.932Z,7.7
2023-04-21T12:58:27.384Z,7.7
2023-04-21T12:59:30.734Z,7.8
2023-04-21T13:00:32.671Z,7.8
2023-04-21T13:01:34.636Z,7.8
2023-04-21T13:02:37.199Z,7.9
2023-04-21T13:03:40.026Z,7.9
2023-04-21T13:04:42.077Z,7.9
2023-04-21T13:15:02.772Z,7.8
2023-04-21T13:16:04.214Z,7.7
2023-04-21T13:17:06.078Z,7.8
2023-04-21T13:18:07.693Z,7.8
2023-04-21T13:19:09.230Z,7.8
2023-04-21T13:20:11.059Z,7.8
2023-04-21T13:21:12.473Z,7.8
2023-04-21T13:22:14.072Z,7.8
2023-04-21T13:23:15.668Z,7.8
2023-04-21T13:24:16.985Z,7.7
2023-04-21T13:25:18.550Z,7.7
2023-04-21T13:26:20.221Z,7.6
2023-04-21T13:27:21.766Z,7.5
2023-04-21T13:28:23.432Z,7.4
2023-04-21T13:29:25.021Z,7.3
2023-04-21T13:30:26.591Z,7.2
2023-04-21T13:31:28.348Z,7.1
2023-04-21T13:32:30.167Z,7.1
2023-04-21T13:33:31.608Z,7.1
2023-04-21T13:34:35.183Z,7.1
2023-04-21T13:35:36.650Z,7.1
2023-04-21T13:36:38.330Z,7.1
2023-04-21T13:37:39.776Z,7.1
2023-04-21T13:38:41.615Z,7.1
2023-04-21T13:39:43.182Z,7.1
2023-04-21T13:40:44.692Z,7.1
2023-04-21T13:41:46.186Z,7.1
2023-04-21T13:42:47.758Z,7.1
2023-04-21T13:43:49.359Z,7.1
2023-04-21T13:44:50.915Z,7.1
2023-04-21T13:45:53.004Z,7.1
2023-04-21T13:46:55.337Z,7.1
2023-04-21T13:47:57.319Z,7.1
2023-04-21T13:48:58.835Z,7.1
2023-04-21T13:50:00.467Z,7.2
2023-04-21T13:51:02.128Z,7.1
2023-04-21T13:52:03.750Z,7.1
2023-04-21T13:53:05.397Z,7.1
2023-04-21T13:54:06.849Z,7.2
2023-04-21T13:55:08.580Z,7.2
2023-04-21T13:56:10.158Z,7.2
2023-04-21T13:57:11.854Z,7.2
2023-04-21T13:58:13.309Z,7.2
2023-04-21T13:59:14.850Z,7.2
2023-04-21T14:00:16.524Z,7.2
2023-04-21T14:10:40.593Z,7.2
2023-04-21T14:11:42.049Z,7.2
2023-04-21T14:12:43.669Z,7.2
2023-04-21T15:32:24.264Z,7.2
2023-04-21T15:33:25.894Z,7.2
2023-04-21T15:34:27.339Z,7.2
2023-04-21T15:35:29.069Z,7.2
2023-04-21T15:36:30.690Z,7.2
2023-04-21T15:37:32.441Z,7.2
2023-04-21T15:38:33.785Z,7.2
2023-04-21T20:06:57.612Z,7.9
2023-04-21T20:07:59.171Z,7.9
2023-04-21T20:09:00.766Z,7.9
2023-04-21T20:10:02.418Z,7.9
2023-04-21T20:11:04.041Z,7.9
2023-04-21T20:12:05.394Z,7.9
2023-04-21T20:13:06.996Z,7.3
2023-04-21T20:14:08.641Z,7.4
2023-04-21T20:15:10.316Z,7.5
2023-04-21T20:16:12.078Z,7.6
2023-04-21T20:17:13.584Z,7.7
2023-04-21T20:18:15.378Z,7.8
2023-04-21T20:19:17.569Z,7.9
2023-04-21T20:20:19.553Z,7.9
2023-04-21T20:21:21.227Z,7.9
2023-04-21T20:22:22.797Z,7.9
2023-04-21T20:23:24.388Z,7.9
2023-04-21T20:24:25.978Z,7.9
2023-04-21T20:25:27.604Z,7.9
2023-04-21T20:26:29.080Z,7.9
2023-04-21T20:27:30.715Z,7.9
2023-04-21T20:28:32.366Z,7.9
2023-04-21T20:29:33.957Z,7.9
2023-04-21T20:30:35.534Z,7.9
2023-04-21T20:31:37.664Z,7.9
2023-04-21T20:32:39.505Z,7.9
2023-04-21T20:33:41.185Z,7.9
2023-04-21T20:34:42.853Z,7.9
2023-04-21T20:35:44.692Z,7.9
2023-04-21T20:36:46.327Z,7.9
2023-04-21T20:37:47.771Z,7.9
2023-04-21T20:38:49.463Z,7.9
2023-04-21T20:39:51.095Z,7.9
2023-04-21T20:40:52.614Z,7.9
2023-04-21T21:21:13.610Z,7.9
2023-04-21T21:22:15.171Z,7.9
2023-04-21T21:23:16.787Z,7.9
2023-04-21T21:24:18.369Z,7.9
2023-04-21T21:25:20.094Z,7.9
2023-04-21T21:26:21.874Z,7.9
2023-04-21T21:27:23.593Z,7.9
2023-04-21T21:28:25.098Z,7.9
2023-04-21T21:29:26.699Z,7.9
2023-04-21T21:30:28.299Z,7.9
2023-04-21T21:31:30.084Z,7.9
2023-04-21T21:32:32.010Z,7.9
2023-04-21T21:33:33.324Z,7.9
2023-04-21T21:34:34.917Z,7.9
2023-04-21T21:35:36.354Z,7.9
2023-04-21T21:36:37.851Z,7.9
2023-04-21T21:37:39.460Z,7.9
2023-04-21T21:38:40.985Z,7.9
2023-04-21T21:39:42.580Z,7.9
2023-04-21T21:40:44.023Z,7.9
2023-04-21T21:41:45.232Z,7.9
2023-04-21T21:42:46.774Z,7.9
2023-04-21T21:43:48.353Z,7.9
2023-04-21T21:44:49.892Z,7.9
2023-04-21T21:45:51.758Z,7.9
2023-04-21T21:46:53.502Z,7.9
2023-04-21T21:47:55.224Z,7.9
2023-04-21T21:48:56.789Z,7.9
2023-04-21T21:49:58.368Z,7.9
2023-04-21T21:50:59.871Z,7.9
2023-04-21T21:52:01.435Z,7.9
2023-04-21T21:53:02.960Z,7.9
2023-04-21T21:54:04.501Z,7.9
2023-04-21T21:55:05.952Z,7.9
2023-04-21T21:56:07.788Z,7.9
2023-04-21T21:57:09.249Z,7.9
2023-04-21T21:58:10.794Z,7.9
2023-04-21T21:59:12.395Z,7.9
2023-04-21T22:00:13.965Z,7.9
2023-04-21T22:01:15.738Z,7.9
2023-04-21T22:02:17.464Z,7.9
2023-04-21T22:03:20.263Z,7.9
2023-04-21T22:04:22.295Z,7.9
2023-04-21T22:05:23.819Z,7.9
2023-04-21T22:06:25.180Z,7.9
2023-04-21T22:07:26.584Z,7.9
2023-04-21T22:08:28.139Z,7.9
2023-04-21T22:09:29.818Z,7.9
2023-04-21T22:10:31.347Z,7.9
2023-04-21T22:11:32.984Z,7.9
2023-04-21T22:12:34.550Z,7.9
2023-04-21T22:13:36.037Z,7.9
2023-04-21T22:14:37.467Z,7.9
2023-04-21T22:15:39.482Z,7.9
2023-04-21T22:16:41.206Z,7.9
2023-04-21T22:17:43.073Z,7.9
2023-04-21T22:18:44.458Z,7.9
2023-04-21T22:19:46.124Z,7.9
2023-04-21T22:20:47.732Z,7.9
2023-04-21T22:21:49.326Z,7.9
2023-04-21T22:22:50.834Z,7.9
2023-04-21T22:23:52.480Z,7.9
2023-04-21T22:24:54.244Z,7.9
2023-04-21T22:25:55.720Z,7.9
2023-04-21T22:26:57.198Z,7.9
2023-04-21T22:27:58.763Z,7.9
2023-04-21T22:29:00.392Z,7.9
2023-04-21T22:30:02.053Z,7.9
2023-04-21T22:31:04.016Z,7.9
2023-04-21T22:32:05.677Z,7.9
2023-04-21T22:33:07.786Z,7.9
2023-04-21T22:34:09.425Z,7.9
2023-04-21T22:35:11.093Z,7.9
2023-04-21T22:36:12.551Z,7.9
2023-04-21T22:37:14.003Z,7.9
2023-04-21T22:38:15.517Z,7.9
2023-04-21T22:39:17.155Z,7.9
2023-04-21T22:40:18.671Z,7.9
2023-04-21T22:41:20.237Z,7.9
2023-04-21T22:42:21.946Z,7.9
2023-04-21T22:43:23.523Z,7.9
2023-04-21T22:44:25.126Z,7.9
2023-04-21T22:45:26.624Z,7.9
2023-04-21T22:46:28.412Z,7.9
2023-04-21T22:47:30.122Z,7.9
2023-04-21T22:48:31.519Z,7.9
2023-04-21T22:49:32.935Z,7.9
2023-04-21T22:50:34.466Z,7.9
2023-04-21T22:51:36.000Z,7.9
2023-04-21T22:52:37.464Z,7.9
2023-04-21T22:53:39.029Z,7.9
2023-04-21T22:54:40.535Z,7.9
2023-04-21T22:55:42.126Z,7.9
2023-04-21T22:56:43.684Z,7.9
2023-04-21T22:57:45.208Z,7.9
2023-04-21T22:58:46.880Z,7.9
2023-04-21T22:59:48.304Z,7.9
2023-04-21T23:00:50.122Z,7.9
2023-04-21T23:01:51.853Z,7.9
2023-04-21T23:02:54.161Z,7.9
2023-04-21T23:03:56.518Z,7.9
2023-04-21T23:04:58.066Z,7.9
2023-04-21T23:05:59.515Z,7.9
2023-04-21T23:07:01.017Z,7.9
2023-04-21T23:08:02.547Z,7.9
2023-04-21T23:09:03.851Z,7.9
2023-04-21T23:10:05.387Z,7.9
2023-04-21T23:11:06.942Z,7.9
2023-04-21T23:12:08.488Z,7.9
2023-04-21T23:13:10.044Z,7.9
2023-04-21T23:14:11.670Z,7.9
2023-04-21T23:15:13.370Z,7.9
2023-04-21T23:16:15.338Z,7.9
2023-04-21T23:17:16.920Z,7.9
2023-04-21T23:18:18.473Z,7.9
2023-04-21T23:19:20.005Z,7.9
2023-04-21T23:20:21.492Z,7.9
2023-04-21T23:21:23.069Z,7.9
2023-04-21T23:22:27.488Z,7.9
2023-04-21T23:23:28.939Z,7.9
2023-04-21T23:24:30.680Z,7.9
2023-04-21T23:25:32.203Z,7.9
2023-04-21T23:26:33.738Z,7.9
2023-04-21T23:27:35.148Z,7.9
2023-04-21T23:28:36.485Z,7.9
2023-04-21T23:29:40.535Z,7.9
2023-04-21T23:30:42.396Z,7.9
2023-04-21T23:31:44.293Z,7.9
2023-04-21T23:32:46.421Z,7.9
2023-04-21T23:33:47.751Z,7.9
2023-04-21T23:34:49.220Z,7.9
2023-04-21T23:35:50.809Z,7.9
2023-04-21T23:36:52.435Z,7.9
2023-04-21T23:37:53.848Z,7.9
2023-04-21T23:38:55.054Z,7.9
2023-04-21T23:39:56.588Z,7.9
2023-04-21T23:40:58.130Z,7.9
2023-04-21T23:41:59.882Z,7.9
2023-04-21T23:43:01.572Z,7.9
2023-04-21T23:44:03.121Z,7.9
2023-04-21T23:45:04.511Z,7.9
2023-04-21T23:46:06.362Z,7.9
2023-04-21T23:47:07.792Z,7.9
2023-04-21T23:48:09.691Z,7.9
2023-04-21T23:49:11.234Z,7.9
2023-04-21T23:50:12.682Z,7.9
2023-04-21T23:51:14.563Z,7.9
2023-04-21T23:52:16.149Z,7.9
2023-04-21T23:53:17.611Z,7.9
2023-04-21T23:54:19.004Z,7.9
2023-04-21T23:55:20.406Z,7.9
2023-04-21T23:56:36.661Z,7.9
2023-04-21T23:57:38.215Z,7.8
2023-04-21T23:58:39.924Z,7.8
